sensor_id;sensor_type;location;lat;lon;timestamp;temperature;humidity
40454;DHT22;26160;51.858;4.398;2023-02-18T00:01:12;9.30;99.90
40454;DHT22;26160;51.858;4.398;2023-02-18T00:03:39;9.30;99.90
40454;DHT22;26160;51.858;4.398;2023-02-18T00:06:14;9.30;99.90
40454;DHT22;26160;51.858;4.398;2023-02-18T00:08:41;9.30;99.90
40454;DHT22;26160;51.858;4.398;2023-02-18T00:11:08;9.40;99.90
40454;DHT22;26160;51.858;4.398;2023-02-18T00:13:35;9.40;99.90
40454;DHT22;26160;51.858;4.398;2023-02-18T00:16:07;9.40;99.90
40454;DHT22;26160;51.858;4.398;2023-02-18T00:18:33;9.40;99.90
40454;DHT22;26160;51.858;4.398;2023-02-18T00:21:03;9.40;99.90
40454;DHT22;26160;51.858;4.398;2023-02-18T00:23:29;9.40;99.90
40454;DHT22;26160;51.858;4.398;2023-02-18T00:26:05;9.40;99.90
40454;DHT22;26160;51.858;4.398;2023-02-18T00:28:31;9.50;99.90
40454;DHT22;26160;51.858;4.398;2023-02-18T00:30:58;9.50;99.90
40454;DHT22;26160;51.858;4.398;2023-02-18T00:33:24;9.50;99.90
40454;DHT22;26160;51.858;4.398;2023-02-18T00:35:50;9.50;99.90
40454;DHT22;26160;51.858;4.398;2023-02-18T00:38:16;9.50;99.90
40454;DHT22;26160;51.858;4.398;2023-02-18T00:40:42;9.50;99.90
40454;DHT22;26160;51.858;4.398;2023-02-18T00:43:09;9.50;99.90
40454;DHT22;26160;51.858;4.398;2023-02-18T00:45:35;9.50;99.90
40454;DHT22;26160;51.858;4.398;2023-02-18T00:48:01;9.50;99.90
40454;DHT22;26160;51.858;4.398;2023-02-18T00:50:27;9.60;99.90
40454;DHT22;26160;51.858;4.398;2023-02-18T00:52:53;9.60;99.90
40454;DHT22;26160;51.858;4.398;2023-02-18T00:55:19;9.60;99.90
40454;DHT22;26160;51.858;4.398;2023-02-18T00:57:45;9.60;99.90
40454;DHT22;26160;51.858;4.398;2023-02-18T01:00:12;9.60;99.90
40454;DHT22;26160;51.858;4.398;2023-02-18T01:02:38;9.60;99.90
40454;DHT22;26160;51.858;4.398;2023-02-18T01:05:04;9.60;99.90
40454;DHT22;26160;51.858;4.398;2023-02-18T01:07:30;9.60;99.90
40454;DHT22;26160;51.858;4.398;2023-02-18T01:09:56;9.70;99.90
40454;DHT22;26160;51.858;4.398;2023-02-18T01:12:22;9.70;99.90
40454;DHT22;26160;51.858;4.398;2023-02-18T01:14:48;9.70;99.90
40454;DHT22;26160;51.858;4.398;2023-02-18T01:17:14;9.70;99.90
40454;DHT22;26160;51.858;4.398;2023-02-18T01:19:41;9.70;99.90
40454;DHT22;26160;51.858;4.398;2023-02-18T01:22:07;9.70;99.90
40454;DHT22;26160;51.858;4.398;2023-02-18T01:24:33;9.70;99.90
40454;DHT22;26160;51.858;4.398;2023-02-18T01:26:59;9.80;99.90
40454;DHT22;26160;51.858;4.398;2023-02-18T01:29:25;9.80;99.90
40454;DHT22;26160;51.858;4.398;2023-02-18T01:31:51;9.80;99.90
40454;DHT22;26160;51.858;4.398;2023-02-18T01:34:17;9.80;99.90
40454;DHT22;26160;51.858;4.398;2023-02-18T01:36:43;9.80;99.90
40454;DHT22;26160;51.858;4.398;2023-02-18T01:39:09;9.80;99.90
40454;DHT22;26160;51.858;4.398;2023-02-18T01:41:35;9.80;99.90
40454;DHT22;26160;51.858;4.398;2023-02-18T01:44:16;9.70;99.90
40454;DHT22;26160;51.858;4.398;2023-02-18T01:46:43;9.70;99.90
40454;DHT22;26160;51.858;4.398;2023-02-18T01:49:13;9.70;99.90
40454;DHT22;26160;51.858;4.398;2023-02-18T01:51:54;9.70;99.90
40454;DHT22;26160;51.858;4.398;2023-02-18T01:54:30;9.70;99.90
40454;DHT22;26160;51.858;4.398;2023-02-18T01:57:02;9.70;99.90
40454;DHT22;26160;51.858;4.398;2023-02-18T01:59:33;9.70;99.90
40454;DHT22;26160;51.858;4.398;2023-02-18T02:02:02;9.70;99.90
40454;DHT22;26160;51.858;4.398;2023-02-18T02:04:29;9.70;99.90
40454;DHT22;26160;51.858;4.398;2023-02-18T02:06:55;9.70;99.90
40454;DHT22;26160;51.858;4.398;2023-02-18T02:09:23;9.70;99.90
40454;DHT22;26160;51.858;4.398;2023-02-18T02:15:00;9.70;99.90
40454;DHT22;26160;51.858;4.398;2023-02-18T02:26:34;9.80;99.90
40454;DHT22;26160;51.858;4.398;2023-02-18T02:38:25;9.90;99.90
40454;DHT22;26160;51.858;4.398;2023-02-18T02:46:38;10.00;99.90
40454;DHT22;26160;51.858;4.398;2023-02-18T02:49:13;10.00;99.90
40454;DHT22;26160;51.858;4.398;2023-02-18T02:51:52;10.00;99.90
40454;DHT22;26160;51.858;4.398;2023-02-18T02:54:24;10.00;99.90
40454;DHT22;26160;51.858;4.398;2023-02-18T02:59:30;10.00;99.90
40454;DHT22;26160;51.858;4.398;2023-02-18T03:10:20;10.10;99.90
40454;DHT22;26160;51.858;4.398;2023-02-18T03:16:15;10.10;99.90
40454;DHT22;26160;51.858;4.398;2023-02-18T03:21:11;10.10;99.90
40454;DHT22;26160;51.858;4.398;2023-02-18T03:26:24;10.10;99.90
40454;DHT22;26160;51.858;4.398;2023-02-18T03:28:53;10.10;99.90
40454;DHT22;26160;51.858;4.398;2023-02-18T03:31:22;10.10;99.90
40454;DHT22;26160;51.858;4.398;2023-02-18T03:34:03;10.10;99.90
40454;DHT22;26160;51.858;4.398;2023-02-18T03:36:32;10.10;99.90
40454;DHT22;26160;51.858;4.398;2023-02-18T03:39:03;10.10;99.90
40454;DHT22;26160;51.858;4.398;2023-02-18T03:41:30;10.10;99.90
40454;DHT22;26160;51.858;4.398;2023-02-18T03:44:02;10.10;99.90
40454;DHT22;26160;51.858;4.398;2023-02-18T03:46:30;10.00;99.90
40454;DHT22;26160;51.858;4.398;2023-02-18T03:48:56;10.00;99.90
40454;DHT22;26160;51.858;4.398;2023-02-18T03:51:23;10.10;99.90
40454;DHT22;26160;51.858;4.398;2023-02-18T03:53:49;10.00;99.90
40454;DHT22;26160;51.858;4.398;2023-02-18T03:56:15;10.00;99.90
40454;DHT22;26160;51.858;4.398;2023-02-18T03:58:41;10.00;99.90
40454;DHT22;26160;51.858;4.398;2023-02-18T04:01:08;10.10;99.90
40454;DHT22;26160;51.858;4.398;2023-02-18T04:03:34;10.00;99.90
40454;DHT22;26160;51.858;4.398;2023-02-18T04:06:00;10.00;99.90
40454;DHT22;26160;51.858;4.398;2023-02-18T04:08:26;10.00;99.90
40454;DHT22;26160;51.858;4.398;2023-02-18T04:10:52;10.00;99.90
40454;DHT22;26160;51.858;4.398;2023-02-18T04:13:21;10.00;99.90
40454;DHT22;26160;51.858;4.398;2023-02-18T04:15:50;10.00;99.90
40454;DHT22;26160;51.858;4.398;2023-02-18T04:18:17;10.10;99.90
40454;DHT22;26160;51.858;4.398;2023-02-18T04:20:43;10.00;99.90
40454;DHT22;26160;51.858;4.398;2023-02-18T04:23:11;10.00;99.90
40454;DHT22;26160;51.858;4.398;2023-02-18T04:25:37;10.00;99.90
40454;DHT22;26160;51.858;4.398;2023-02-18T04:28:04;10.00;99.90
40454;DHT22;26160;51.858;4.398;2023-02-18T04:30:31;10.00;99.90
40454;DHT22;26160;51.858;4.398;2023-02-18T04:32:57;10.00;99.90
40454;DHT22;26160;51.858;4.398;2023-02-18T04:35:23;10.00;99.90
40454;DHT22;26160;51.858;4.398;2023-02-18T04:37:49;10.00;99.90
40454;DHT22;26160;51.858;4.398;2023-02-18T04:40:15;10.00;99.90
40454;DHT22;26160;51.858;4.398;2023-02-18T04:42:41;10.00;99.90
40454;DHT22;26160;51.858;4.398;2023-02-18T04:45:08;10.00;99.90
40454;DHT22;26160;51.858;4.398;2023-02-18T04:47:34;10.00;99.90
40454;DHT22;26160;51.858;4.398;2023-02-18T04:50:00;10.00;99.90
40454;DHT22;26160;51.858;4.398;2023-02-18T04:52:26;10.00;99.90
40454;DHT22;26160;51.858;4.398;2023-02-18T04:54:52;10.00;99.90
40454;DHT22;26160;51.858;4.398;2023-02-18T04:57:19;10.00;99.90
40454;DHT22;26160;51.858;4.398;2023-02-18T04:59:45;10.00;99.90
40454;DHT22;26160;51.858;4.398;2023-02-18T05:02:11;10.10;99.90
40454;DHT22;26160;51.858;4.398;2023-02-18T05:04:37;10.10;99.90
40454;DHT22;26160;51.858;4.398;2023-02-18T05:07:03;10.10;99.90
40454;DHT22;26160;51.858;4.398;2023-02-18T05:09:29;10.10;99.90
40454;DHT22;26160;51.858;4.398;2023-02-18T05:11:55;10.10;99.90
40454;DHT22;26160;51.858;4.398;2023-02-18T05:14:21;10.10;99.90
40454;DHT22;26160;51.858;4.398;2023-02-18T05:16:47;10.20;99.90
40454;DHT22;26160;51.858;4.398;2023-02-18T05:19:14;10.10;99.90
40454;DHT22;26160;51.858;4.398;2023-02-18T05:21:41;10.10;99.90
40454;DHT22;26160;51.858;4.398;2023-02-18T05:24:08;10.10;99.90
40454;DHT22;26160;51.858;4.398;2023-02-18T05:26:34;10.10;99.90
40454;DHT22;26160;51.858;4.398;2023-02-18T05:29:01;10.10;99.90
40454;DHT22;26160;51.858;4.398;2023-02-18T05:31:27;10.00;99.90
40454;DHT22;26160;51.858;4.398;2023-02-18T05:33:53;10.10;99.90
40454;DHT22;26160;51.858;4.398;2023-02-18T05:36:19;10.10;99.90
40454;DHT22;26160;51.858;4.398;2023-02-18T05:38:45;10.10;99.90
40454;DHT22;26160;51.858;4.398;2023-02-18T05:41:11;10.10;99.90
40454;DHT22;26160;51.858;4.398;2023-02-18T05:43:37;10.10;99.90
40454;DHT22;26160;51.858;4.398;2023-02-18T05:46:22;10.10;99.90
40454;DHT22;26160;51.858;4.398;2023-02-18T05:48:48;10.10;99.90
40454;DHT22;26160;51.858;4.398;2023-02-18T05:51:15;10.10;99.90
40454;DHT22;26160;51.858;4.398;2023-02-18T05:53:41;10.10;99.90
40454;DHT22;26160;51.858;4.398;2023-02-18T05:56:07;10.10;99.90
40454;DHT22;26160;51.858;4.398;2023-02-18T05:58:33;10.10;99.90
40454;DHT22;26160;51.858;4.398;2023-02-18T06:01:00;10.10;99.90
40454;DHT22;26160;51.858;4.398;2023-02-18T06:03:26;10.10;99.90
40454;DHT22;26160;51.858;4.398;2023-02-18T06:05:52;10.10;99.90
40454;DHT22;26160;51.858;4.398;2023-02-18T06:08:18;10.10;99.90
40454;DHT22;26160;51.858;4.398;2023-02-18T06:10:47;10.10;99.90
40454;DHT22;26160;51.858;4.398;2023-02-18T06:13:13;10.10;99.90
40454;DHT22;26160;51.858;4.398;2023-02-18T06:15:39;10.00;99.90
40454;DHT22;26160;51.858;4.398;2023-02-18T06:18:06;10.10;99.90
40454;DHT22;26160;51.858;4.398;2023-02-18T06:20:32;10.10;99.90
40454;DHT22;26160;51.858;4.398;2023-02-18T06:22:58;10.10;99.90
40454;DHT22;26160;51.858;4.398;2023-02-18T06:25:24;10.10;99.90
40454;DHT22;26160;51.858;4.398;2023-02-18T06:27:50;10.10;99.90
40454;DHT22;26160;51.858;4.398;2023-02-18T06:30:16;10.00;99.90
40454;DHT22;26160;51.858;4.398;2023-02-18T06:32:42;10.00;99.90
40454;DHT22;26160;51.858;4.398;2023-02-18T06:35:09;10.00;99.90
40454;DHT22;26160;51.858;4.398;2023-02-18T06:37:35;10.00;99.90
40454;DHT22;26160;51.858;4.398;2023-02-18T06:40:01;10.00;99.90
40454;DHT22;26160;51.858;4.398;2023-02-18T06:42:27;10.00;99.90
40454;DHT22;26160;51.858;4.398;2023-02-18T06:44:53;10.00;99.90
40454;DHT22;26160;51.858;4.398;2023-02-18T06:47:19;10.00;99.90
40454;DHT22;26160;51.858;4.398;2023-02-18T06:49:45;10.00;99.90
40454;DHT22;26160;51.858;4.398;2023-02-18T06:52:11;9.90;99.90
40454;DHT22;26160;51.858;4.398;2023-02-18T06:54:37;9.90;99.90
40454;DHT22;26160;51.858;4.398;2023-02-18T06:57:04;9.90;99.90
40454;DHT22;26160;51.858;4.398;2023-02-18T06:59:30;9.90;99.90
40454;DHT22;26160;51.858;4.398;2023-02-18T07:01:56;9.90;99.90
40454;DHT22;26160;51.858;4.398;2023-02-18T07:04:22;9.90;99.90
40454;DHT22;26160;51.858;4.398;2023-02-18T07:06:48;9.90;99.90
40454;DHT22;26160;51.858;4.398;2023-02-18T07:09:14;9.80;99.90
40454;DHT22;26160;51.858;4.398;2023-02-18T07:11:43;9.90;99.90
40454;DHT22;26160;51.858;4.398;2023-02-18T07:14:09;9.80;99.90
40454;DHT22;26160;51.858;4.398;2023-02-18T07:16:35;9.80;99.90
40454;DHT22;26160;51.858;4.398;2023-02-18T07:19:01;9.80;99.90
40454;DHT22;26160;51.858;4.398;2023-02-18T07:21:27;9.80;99.90
40454;DHT22;26160;51.858;4.398;2023-02-18T07:23:53;9.80;99.90
40454;DHT22;26160;51.858;4.398;2023-02-18T07:26:19;9.80;99.90
40454;DHT22;26160;51.858;4.398;2023-02-18T07:28:45;9.90;99.90
40454;DHT22;26160;51.858;4.398;2023-02-18T07:31:12;9.90;99.90
40454;DHT22;26160;51.858;4.398;2023-02-18T07:33:38;9.90;99.90
40454;DHT22;26160;51.858;4.398;2023-02-18T07:36:04;10.00;99.90
40454;DHT22;26160;51.858;4.398;2023-02-18T07:38:31;10.00;99.90
40454;DHT22;26160;51.858;4.398;2023-02-18T07:40:57;10.10;99.90
40454;DHT22;26160;51.858;4.398;2023-02-18T07:43:23;10.10;99.90
40454;DHT22;26160;51.858;4.398;2023-02-18T07:45:50;10.10;99.90
40454;DHT22;26160;51.858;4.398;2023-02-18T07:48:16;10.20;99.90
40454;DHT22;26160;51.858;4.398;2023-02-18T07:50:44;10.30;99.90
40454;DHT22;26160;51.858;4.398;2023-02-18T07:53:12;10.30;99.90
40454;DHT22;26160;51.858;4.398;2023-02-18T07:55:39;10.30;99.90
40454;DHT22;26160;51.858;4.398;2023-02-18T07:58:27;10.30;99.90
40454;DHT22;26160;51.858;4.398;2023-02-18T08:00:54;10.40;99.90
40454;DHT22;26160;51.858;4.398;2023-02-18T08:03:25;10.40;99.90
40454;DHT22;26160;51.858;4.398;2023-02-18T08:05:52;10.50;99.90
40454;DHT22;26160;51.858;4.398;2023-02-18T08:08:21;10.40;99.90
40454;DHT22;26160;51.858;4.398;2023-02-18T08:10:49;10.40;99.90
40454;DHT22;26160;51.858;4.398;2023-02-18T08:13:15;10.40;99.90
40454;DHT22;26160;51.858;4.398;2023-02-18T08:15:41;10.40;99.90
40454;DHT22;26160;51.858;4.398;2023-02-18T08:18:13;10.40;99.90
40454;DHT22;26160;51.858;4.398;2023-02-18T08:20:39;10.40;99.90
40454;DHT22;26160;51.858;4.398;2023-02-18T08:23:05;10.50;99.90
40454;DHT22;26160;51.858;4.398;2023-02-18T08:25:32;10.50;99.90
40454;DHT22;26160;51.858;4.398;2023-02-18T08:30:34;10.60;99.90
40454;DHT22;26160;51.858;4.398;2023-02-18T08:33:00;10.60;99.90
40454;DHT22;26160;51.858;4.398;2023-02-18T08:35:26;10.60;99.90
40454;DHT22;26160;51.858;4.398;2023-02-18T08:37:52;10.60;99.90
40454;DHT22;26160;51.858;4.398;2023-02-18T08:40:19;10.50;99.90
40454;DHT22;26160;51.858;4.398;2023-02-18T08:42:45;10.50;99.90
40454;DHT22;26160;51.858;4.398;2023-02-18T08:45:13;10.50;99.90
40454;DHT22;26160;51.858;4.398;2023-02-18T08:47:39;10.50;99.90
40454;DHT22;26160;51.858;4.398;2023-02-18T08:50:05;10.50;99.90
40454;DHT22;26160;51.858;4.398;2023-02-18T08:52:31;10.50;99.90
40454;DHT22;26160;51.858;4.398;2023-02-18T08:54:57;10.50;99.90
40454;DHT22;26160;51.858;4.398;2023-02-18T08:57:24;10.50;99.90
40454;DHT22;26160;51.858;4.398;2023-02-18T08:59:50;10.60;99.90
40454;DHT22;26160;51.858;4.398;2023-02-18T09:02:16;10.60;99.90
40454;DHT22;26160;51.858;4.398;2023-02-18T09:04:42;10.60;99.90
40454;DHT22;26160;51.858;4.398;2023-02-18T09:07:08;10.70;99.90
40454;DHT22;26160;51.858;4.398;2023-02-18T09:12:02;10.70;99.90
40454;DHT22;26160;51.858;4.398;2023-02-18T09:14:28;10.80;99.90
40454;DHT22;26160;51.858;4.398;2023-02-18T09:16:56;10.90;99.90
40454;DHT22;26160;51.858;4.398;2023-02-18T09:19:23;10.90;99.90
40454;DHT22;26160;51.858;4.398;2023-02-18T09:21:50;10.90;99.90
40454;DHT22;26160;51.858;4.398;2023-02-18T09:24:19;10.90;99.90
40454;DHT22;26160;51.858;4.398;2023-02-18T09:26:45;10.90;99.90
40454;DHT22;26160;51.858;4.398;2023-02-18T09:29:11;10.90;99.90
40454;DHT22;26160;51.858;4.398;2023-02-18T09:31:37;11.00;99.90
40454;DHT22;26160;51.858;4.398;2023-02-18T09:34:04;10.90;99.90
40454;DHT22;26160;51.858;4.398;2023-02-18T09:36:31;10.90;99.90
40454;DHT22;26160;51.858;4.398;2023-02-18T09:38:57;10.90;99.90
40454;DHT22;26160;51.858;4.398;2023-02-18T09:41:31;10.90;99.90
40454;DHT22;26160;51.858;4.398;2023-02-18T09:44:24;10.90;99.90
40454;DHT22;26160;51.858;4.398;2023-02-18T09:47:05;10.90;99.90
40454;DHT22;26160;51.858;4.398;2023-02-18T09:49:36;10.90;99.90
40454;DHT22;26160;51.858;4.398;2023-02-18T09:52:21;11.00;99.90
40454;DHT22;26160;51.858;4.398;2023-02-18T09:54:49;11.00;99.90
40454;DHT22;26160;51.858;4.398;2023-02-18T09:57:40;11.00;99.90
40454;DHT22;26160;51.858;4.398;2023-02-18T10:00:17;11.00;99.90
40454;DHT22;26160;51.858;4.398;2023-02-18T10:03:00;11.00;99.90
40454;DHT22;26160;51.858;4.398;2023-02-18T10:08:36;11.00;99.90
40454;DHT22;26160;51.858;4.398;2023-02-18T10:11:03;11.00;99.90
40454;DHT22;26160;51.858;4.398;2023-02-18T10:13:33;11.10;99.90
40454;DHT22;26160;51.858;4.398;2023-02-18T10:16:00;11.10;99.90
40454;DHT22;26160;51.858;4.398;2023-02-18T10:18:29;11.10;99.90
40454;DHT22;26160;51.858;4.398;2023-02-18T10:21:20;11.10;99.90
40454;DHT22;26160;51.858;4.398;2023-02-18T10:24:00;11.10;99.90
40454;DHT22;26160;51.858;4.398;2023-02-18T10:26:33;11.20;99.90
40454;DHT22;26160;51.858;4.398;2023-02-18T10:29:00;11.20;99.90
40454;DHT22;26160;51.858;4.398;2023-02-18T10:31:36;11.20;99.90
40454;DHT22;26160;51.858;4.398;2023-02-18T10:34:15;11.20;99.90
40454;DHT22;26160;51.858;4.398;2023-02-18T10:36:50;11.20;99.90
40454;DHT22;26160;51.858;4.398;2023-02-18T10:39:26;11.20;99.90
40454;DHT22;26160;51.858;4.398;2023-02-18T10:45:20;11.20;99.90
40454;DHT22;26160;51.858;4.398;2023-02-18T10:53:10;11.30;99.90
40454;DHT22;26160;51.858;4.398;2023-02-18T10:55:44;11.40;99.90
40454;DHT22;26160;51.858;4.398;2023-02-18T10:58:26;11.40;99.90
40454;DHT22;26160;51.858;4.398;2023-02-18T11:00:55;11.40;99.90
40454;DHT22;26160;51.858;4.398;2023-02-18T11:03:42;11.50;99.90
40454;DHT22;26160;51.858;4.398;2023-02-18T11:06:45;11.50;99.90
40454;DHT22;26160;51.858;4.398;2023-02-18T11:09:28;11.70;99.90
40454;DHT22;26160;51.858;4.398;2023-02-18T11:12:02;11.80;99.90
40454;DHT22;26160;51.858;4.398;2023-02-18T11:14:43;11.90;99.90
40454;DHT22;26160;51.858;4.398;2023-02-18T11:17:27;11.90;99.90
40454;DHT22;26160;51.858;4.398;2023-02-18T11:19:56;11.90;99.90
40454;DHT22;26160;51.858;4.398;2023-02-18T11:22:30;12.00;99.90
40454;DHT22;26160;51.858;4.398;2023-02-18T11:25:03;12.00;99.90
40454;DHT22;26160;51.858;4.398;2023-02-18T11:27:45;12.10;99.90
40454;DHT22;26160;51.858;4.398;2023-02-18T11:30:30;12.10;99.90
40454;DHT22;26160;51.858;4.398;2023-02-18T11:33:19;12.20;99.90
40454;DHT22;26160;51.858;4.398;2023-02-18T11:35:51;12.20;99.90
40454;DHT22;26160;51.858;4.398;2023-02-18T11:38:27;12.00;99.90
40454;DHT22;26160;51.858;4.398;2023-02-18T11:41:08;12.00;99.90
40454;DHT22;26160;51.858;4.398;2023-02-18T11:43:36;12.00;99.90
40454;DHT22;26160;51.858;4.398;2023-02-18T11:46:12;12.10;99.90
40454;DHT22;26160;51.858;4.398;2023-02-18T11:48:44;12.00;99.90
40454;DHT22;26160;51.858;4.398;2023-02-18T11:51:32;12.00;99.90
40454;DHT22;26160;51.858;4.398;2023-02-18T11:54:24;11.90;99.90
40454;DHT22;26160;51.858;4.398;2023-02-18T11:57:00;11.90;99.90
40454;DHT22;26160;51.858;4.398;2023-02-18T11:59:29;12.00;99.90
40454;DHT22;26160;51.858;4.398;2023-02-18T12:04:58;11.90;99.90
40454;DHT22;26160;51.858;4.398;2023-02-18T12:13:26;11.90;99.90
40454;DHT22;26160;51.858;4.398;2023-02-18T12:21:41;12.00;99.90
40454;DHT22;26160;51.858;4.398;2023-02-18T12:24:17;12.10;99.90
40454;DHT22;26160;51.858;4.398;2023-02-18T12:33:43;12.10;99.90
40454;DHT22;26160;51.858;4.398;2023-02-18T12:38:59;12.10;99.90
40454;DHT22;26160;51.858;4.398;2023-02-18T12:44:38;12.30;99.90
40454;DHT22;26160;51.858;4.398;2023-02-18T12:50:43;12.40;99.90
40454;DHT22;26160;51.858;4.398;2023-02-18T13:01:41;12.50;99.90
40454;DHT22;26160;51.858;4.398;2023-02-18T13:07:06;12.80;99.90
40454;DHT22;26160;51.858;4.398;2023-02-18T13:09:57;12.80;99.90
40454;DHT22;26160;51.858;4.398;2023-02-18T13:12:49;12.80;99.90
40454;DHT22;26160;51.858;4.398;2023-02-18T13:15:45;12.80;99.90
40454;DHT22;26160;51.858;4.398;2023-02-18T13:18:24;12.80;99.90
40454;DHT22;26160;51.858;4.398;2023-02-18T13:20:58;12.80;99.90
40454;DHT22;26160;51.858;4.398;2023-02-18T13:23:32;12.70;99.90
40454;DHT22;26160;51.858;4.398;2023-02-18T13:29:05;12.40;99.90
40454;DHT22;26160;51.858;4.398;2023-02-18T13:34:41;12.50;99.90
40454;DHT22;26160;51.858;4.398;2023-02-18T13:37:31;12.40;99.90
40454;DHT22;26160;51.858;4.398;2023-02-18T13:39:59;12.40;99.90
40454;DHT22;26160;51.858;4.398;2023-02-18T13:42:34;12.40;99.90
40454;DHT22;26160;51.858;4.398;2023-02-18T13:45:28;12.40;99.90
40454;DHT22;26160;51.858;4.398;2023-02-18T13:47:56;12.60;99.90
40454;DHT22;26160;51.858;4.398;2023-02-18T13:53:12;12.50;99.90
40454;DHT22;26160;51.858;4.398;2023-02-18T13:59:39;12.50;99.90
40454;DHT22;26160;51.858;4.398;2023-02-18T14:01:47;12.50;99.90
40454;DHT22;26160;51.858;4.398;2023-02-18T14:25:41;13.10;99.90
40454;DHT22;26160;51.858;4.398;2023-02-18T14:31:01;13.00;99.90
40454;DHT22;26160;51.858;4.398;2023-02-18T14:33:31;12.70;99.90
40454;DHT22;26160;51.858;4.398;2023-02-18T14:38:55;12.60;99.90
40454;DHT22;26160;51.858;4.398;2023-02-18T14:52:44;12.40;99.90
40454;DHT22;26160;51.858;4.398;2023-02-18T14:55:32;12.40;99.90
40454;DHT22;26160;51.858;4.398;2023-02-18T14:58:02;12.40;99.90
40454;DHT22;26160;51.858;4.398;2023-02-18T15:00:33;12.30;99.90
40454;DHT22;26160;51.858;4.398;2023-02-18T15:03:00;12.20;99.90
40454;DHT22;26160;51.858;4.398;2023-02-18T15:05:36;12.30;99.90
40454;DHT22;26160;51.858;4.398;2023-02-18T15:08:04;12.20;99.90
40454;DHT22;26160;51.858;4.398;2023-02-18T15:10:41;12.10;99.90
40454;DHT22;26160;51.858;4.398;2023-02-18T15:13:17;12.10;99.90
40454;DHT22;26160;51.858;4.398;2023-02-18T15:15:46;12.00;99.90
40454;DHT22;26160;51.858;4.398;2023-02-18T15:20:55;11.90;99.90
40454;DHT22;26160;51.858;4.398;2023-02-18T15:23:22;11.90;99.90
40454;DHT22;26160;51.858;4.398;2023-02-18T15:25:52;11.90;99.90
40454;DHT22;26160;51.858;4.398;2023-02-18T15:28:31;11.80;99.90
40454;DHT22;26160;51.858;4.398;2023-02-18T15:30:59;11.80;99.90
40454;DHT22;26160;51.858;4.398;2023-02-18T15:33:26;11.70;99.90
40454;DHT22;26160;51.858;4.398;2023-02-18T15:36:04;11.70;99.90
40454;DHT22;26160;51.858;4.398;2023-02-18T15:38:32;11.70;99.90
40454;DHT22;26160;51.858;4.398;2023-02-18T15:40:59;11.60;99.90
40454;DHT22;26160;51.858;4.398;2023-02-18T15:43:25;11.70;99.90
40454;DHT22;26160;51.858;4.398;2023-02-18T15:45:56;11.60;99.90
40454;DHT22;26160;51.858;4.398;2023-02-18T15:55:17;11.50;99.90
40454;DHT22;26160;51.858;4.398;2023-02-18T16:21:53;11.30;99.90
40454;DHT22;26160;51.858;4.398;2023-02-18T16:24:25;11.20;99.90
40454;DHT22;26160;51.858;4.398;2023-02-18T16:26:56;11.20;99.90
40454;DHT22;26160;51.858;4.398;2023-02-18T16:29:38;11.10;99.90
40454;DHT22;26160;51.858;4.398;2023-02-18T16:32:06;11.10;99.90
40454;DHT22;26160;51.858;4.398;2023-02-18T16:34:34;11.00;99.90
40454;DHT22;26160;51.858;4.398;2023-02-18T16:39:36;10.90;99.90
40454;DHT22;26160;51.858;4.398;2023-02-18T16:42:08;10.90;99.90
40454;DHT22;26160;51.858;4.398;2023-02-18T16:47:38;10.80;99.90
40454;DHT22;26160;51.858;4.398;2023-02-18T16:55:27;10.80;99.90
40454;DHT22;26160;51.858;4.398;2023-02-18T17:00:29;10.70;99.90
40454;DHT22;26160;51.858;4.398;2023-02-18T17:08:39;10.70;99.90
40454;DHT22;26160;51.858;4.398;2023-02-18T17:14:18;10.70;99.90
40454;DHT22;26160;51.858;4.398;2023-02-18T17:25:53;10.60;99.90
40454;DHT22;26160;51.858;4.398;2023-02-18T17:28:19;10.60;99.90
40454;DHT22;26160;51.858;4.398;2023-02-18T17:30:54;10.60;99.90
40454;DHT22;26160;51.858;4.398;2023-02-18T17:33:24;10.60;99.90
40454;DHT22;26160;51.858;4.398;2023-02-18T17:38:26;10.60;99.90
40454;DHT22;26160;51.858;4.398;2023-02-18T17:40:53;10.60;99.90
40454;DHT22;26160;51.858;4.398;2023-02-18T17:43:19;10.60;99.90
40454;DHT22;26160;51.858;4.398;2023-02-18T17:48:21;10.60;99.90
40454;DHT22;26160;51.858;4.398;2023-02-18T17:53:46;10.60;99.90
40454;DHT22;26160;51.858;4.398;2023-02-18T18:04:00;10.60;99.90
40454;DHT22;26160;51.858;4.398;2023-02-18T18:13:23;10.60;99.90
40454;DHT22;26160;51.858;4.398;2023-02-18T18:15:53;10.50;99.90
40454;DHT22;26160;51.858;4.398;2023-02-18T18:18:29;10.60;99.90
40454;DHT22;26160;51.858;4.398;2023-02-18T18:24:40;10.60;99.90
40454;DHT22;26160;51.858;4.398;2023-02-18T18:27:08;10.60;99.90
40454;DHT22;26160;51.858;4.398;2023-02-18T18:32:12;10.60;99.90
40454;DHT22;26160;51.858;4.398;2023-02-18T18:34:38;10.60;99.90
40454;DHT22;26160;51.858;4.398;2023-02-18T18:37:04;10.60;99.90
40454;DHT22;26160;51.858;4.398;2023-02-18T18:39:34;10.60;99.90
40454;DHT22;26160;51.858;4.398;2023-02-18T18:42:01;10.60;99.90
40454;DHT22;26160;51.858;4.398;2023-02-18T18:44:37;10.60;99.90
40454;DHT22;26160;51.858;4.398;2023-02-18T18:47:03;10.60;99.90
40454;DHT22;26160;51.858;4.398;2023-02-18T18:49:32;10.70;99.90
40454;DHT22;26160;51.858;4.398;2023-02-18T18:51:58;10.60;99.90
40454;DHT22;26160;51.858;4.398;2023-02-18T18:54:35;10.70;99.90
40454;DHT22;26160;51.858;4.398;2023-02-18T18:57:03;10.70;99.90
40454;DHT22;26160;51.858;4.398;2023-02-18T18:59:30;10.70;99.90
40454;DHT22;26160;51.858;4.398;2023-02-18T19:01:56;10.70;99.90
40454;DHT22;26160;51.858;4.398;2023-02-18T19:04:22;10.70;99.90
40454;DHT22;26160;51.858;4.398;2023-02-18T19:06:49;10.60;99.90
40454;DHT22;26160;51.858;4.398;2023-02-18T19:09:15;10.60;99.90
40454;DHT22;26160;51.858;4.398;2023-02-18T19:11:46;10.60;99.90
40454;DHT22;26160;51.858;4.398;2023-02-18T19:14:13;10.60;99.90
40454;DHT22;26160;51.858;4.398;2023-02-18T19:16:41;10.50;99.90
40454;DHT22;26160;51.858;4.398;2023-02-18T19:19:20;10.50;99.90
40454;DHT22;26160;51.858;4.398;2023-02-18T19:21:49;10.50;99.90
40454;DHT22;26160;51.858;4.398;2023-02-18T19:24:15;10.50;99.90
40454;DHT22;26160;51.858;4.398;2023-02-18T19:26:41;10.50;99.90
40454;DHT22;26160;51.858;4.398;2023-02-18T19:29:07;10.50;99.90
40454;DHT22;26160;51.858;4.398;2023-02-18T19:31:34;10.50;99.90
40454;DHT22;26160;51.858;4.398;2023-02-18T19:34:06;10.50;99.90
40454;DHT22;26160;51.858;4.398;2023-02-18T19:36:32;10.50;99.90
40454;DHT22;26160;51.858;4.398;2023-02-18T19:38:58;10.50;99.90
40454;DHT22;26160;51.858;4.398;2023-02-18T19:41:24;10.50;99.90
40454;DHT22;26160;51.858;4.398;2023-02-18T19:43:50;10.40;99.90
40454;DHT22;26160;51.858;4.398;2023-02-18T19:46:17;10.40;99.90
40454;DHT22;26160;51.858;4.398;2023-02-18T19:48:47;10.40;99.90
40454;DHT22;26160;51.858;4.398;2023-02-18T19:51:15;10.40;99.90
40454;DHT22;26160;51.858;4.398;2023-02-18T19:53:41;10.30;99.90
40454;DHT22;26160;51.858;4.398;2023-02-18T19:56:07;10.30;99.90
40454;DHT22;26160;51.858;4.398;2023-02-18T19:58:34;10.20;99.90
40454;DHT22;26160;51.858;4.398;2023-02-18T20:01:01;10.30;99.90